Time;durP1;ratioP1;P1;durP2;ratioP2;P2;SDS_P1;SDS_P2;PMS_P1;PMS_P2;Temp;Humidity;BMP_temperature;BMP_pressure;BME280_temperature;BME280_humidity;BME280_pressure;Samples;Min_cycle;Max_cycle;Signal;HPM_P1;HPM_P2
2021/01/12 00:01:31;;;;;;;36.13;25.37;;;;;;;5.27;100.00;99559.44;5139949;27;20303;-31
2021/01/12 00:04:17;;;;;;;37.60;26.87;;;;;;;5.40;100.00;99551.75;5140139;27;20239;-31
2021/01/12 00:07:04;;;;;;;32.60;24.90;;;;;;;5.29;100.00;99545.78;5140109;27;20193;-30
2021/01/12 00:09:50;;;;;;;36.57;25.40;;;;;;;5.26;100.00;99547.47;5139629;27;20193;-31
2021/01/12 00:12:36;;;;;;;32.93;24.93;;;;;;;5.30;100.00;99531.25;5140117;27;20263;-31
2021/01/12 00:15:22;;;;;;;37.10;27.03;;;;;;;5.41;100.00;99529.53;5140107;27;20202;-31
2021/01/12 00:18:08;;;;;;;37.27;27.40;;;;;;;5.22;100.00;99528.69;5141673;27;20221;-31
2021/01/12 00:20:54;;;;;;;38.90;26.73;;;;;;;5.33;100.00;99514.16;5140113;27;20268;-31
2021/01/12 00:23:41;;;;;;;38.90;27.80;;;;;;;5.17;100.00;99510.75;5139463;27;20198;-31
2021/01/12 00:26:27;;;;;;;47.13;29.73;;;;;;;5.22;100.00;99509.88;5139683;27;20285;-31
2021/01/12 00:29:13;;;;;;;46.73;29.77;;;;;;;5.18;100.00;99515.03;5139465;27;20596;-31
2021/01/12 00:31:58;;;;;;;44.23;29.67;;;;;;;5.25;100.00;99507.31;5139684;27;20252;-31
2021/01/12 00:34:45;;;;;;;50.43;30.70;;;;;;;5.22;100.00;99502.19;5139560;27;20202;-31
2021/01/12 00:37:31;;;;;;;42.33;29.27;;;;;;;5.23;100.00;99499.63;5140374;27;20240;-31
2021/01/12 00:40:17;;;;;;;39.93;28.37;;;;;;;5.30;100.00;99501.34;5139562;27;20264;-31
2021/01/12 00:43:03;;;;;;;43.87;28.57;;;;;;;5.34;100.00;99489.38;5139286;27;20281;-32
2021/01/12 00:45:49;;;;;;;48.10;30.67;;;;;;;5.56;100.00;99492.78;5140371;27;20404;-32
2021/01/12 00:48:34;;;;;;;44.87;31.13;;;;;;;5.46;100.00;99486.78;5139740;27;20194;-32
2021/01/12 00:51:21;;;;;;;46.50;32.07;;;;;;;5.39;100.00;99474.84;5139257;27;20308;-31
2021/01/12 00:54:06;;;;;;;48.60;31.80;;;;;;;5.56;100.00;99470.56;5139094;27;20200;-32
2021/01/12 00:57:06;;;;;;;47.17;30.33;;;;;;;5.59;100.00;99464.56;5139228;27;20367;-31
2021/01/12 00:59:52;;;;;;;45.43;29.47;;;;;;;5.45;100.00;99456.88;5139052;27;20206;-32
2021/01/12 01:02:38;;;;;;;47.57;32.77;;;;;;;5.53;100.00;99457.72;5138794;27;20483;-32
2021/01/12 01:05:24;;;;;;;47.33;32.37;;;;;;;5.66;100.00;99456.00;5138348;27;20193;-32
2021/01/12 01:08:09;;;;;;;43.77;31.20;;;;;;;5.55;100.00;99450.91;5138963;27;20205;-32
2021/01/12 01:10:55;;;;;;;42.50;29.67;;;;;;;5.49;100.00;99438.06;5139598;27;20193;-32
2021/01/12 01:13:42;;;;;;;45.70;31.40;;;;;;;5.50;100.00;99437.22;5139232;27;20198;-32
2021/01/12 01:16:31;;;;;;;44.83;30.27;;;;;;;5.54;100.00;99428.66;5138220;27;20299;-32
2021/01/12 01:19:17;;;;;;;47.30;30.73;;;;;;;5.59;100.00;99419.25;5138783;27;20282;-32
2021/01/12 01:22:03;;;;;;;47.03;30.10;;;;;;;5.54;100.00;99413.28;5138923;27;20286;-32
2021/01/12 01:24:49;;;;;;;50.93;31.97;;;;;;;5.58;100.00;99419.25;5138406;27;20309;-32
2021/01/12 01:27:36;;;;;;;45.20;31.27;;;;;;;5.63;100.00;99414.94;5138510;27;20354;-32
2021/01/12 01:30:23;;;;;;;48.07;31.17;;;;;;;5.60;100.00;99402.97;5138430;28;20193;-33
2021/01/12 01:33:08;;;;;;;45.83;32.40;;;;;;;5.55;100.00;99402.16;5138724;28;20539;-33
2021/01/12 01:35:54;;;;;;;53.93;33.47;;;;;;;5.62;100.00;99406.38;5138697;28;20201;-32
2021/01/12 01:38:40;;;;;;;49.17;33.90;;;;;;;5.58;100.00;99406.44;5138222;28;20291;-33
2021/01/12 01:41:26;;;;;;;53.03;35.43;;;;;;;5.49;100.00;99402.16;5138180;28;20575;-32
2021/01/12 01:44:12;;;;;;;56.57;34.63;;;;;;;5.60;100.00;99395.28;5137969;28;20198;-33
2021/01/12 01:46:59;;;;;;;52.67;35.63;;;;;;;5.54;100.00;99391.03;5141997;28;20194;-33
2021/01/12 01:49:44;;;;;;;54.70;35.13;;;;;;;5.70;100.00;99388.41;5138636;28;20198;-32
2021/01/12 01:52:30;;;;;;;53.50;34.90;;;;;;;5.60;100.00;99385.00;5138217;28;20218;-32
2021/01/12 01:55:17;;;;;;;51.03;33.93;;;;;;;5.70;100.00;99391.84;5137900;28;20255;-32
2021/01/12 01:58:02;;;;;;;51.53;33.47;;;;;;;5.71;100.00;99396.13;5141668;28;20241;-33
2021/01/12 02:00:48;;;;;;;51.07;34.17;;;;;;;5.80;100.00;99383.25;5138419;28;20206;-32
2021/01/12 02:03:41;;;;;;;51.17;33.70;;;;;;;5.95;100.00;99378.97;5137809;28;20603;-32
2021/01/12 02:06:29;;;;;;;42.83;31.57;;;;;;;5.83;100.00;99377.25;5137780;28;20481;-32
2021/01/12 02:09:23;;;;;;;46.80;31.53;;;;;;;5.74;100.00;99359.34;5138012;28;20196;-32
2021/01/12 02:12:16;;;;;;;42.93;29.70;;;;;;;5.87;100.00;99369.53;5139553;28;20714;-32
2021/01/12 02:15:04;;;;;;;46.53;30.87;;;;;;;5.81;100.00;99353.28;5138019;28;20198;-32
2021/01/12 02:17:51;;;;;;;47.03;31.57;;;;;;;5.91;100.00;99346.47;5140484;27;20777;-33
2021/01/12 02:20:40;;;;;;;46.70;31.10;;;;;;;5.84;100.00;99343.88;5142053;27;20198;-34
2021/01/12 02:23:31;;;;;;;44.57;30.83;;;;;;;5.97;100.00;99336.16;5142165;27;20217;-32
2021/01/12 02:26:18;;;;;;;41.03;29.17;;;;;;;5.80;100.00;99331.91;5141509;27;20227;-32
2021/01/12 02:29:04;;;;;;;36.60;26.10;;;;;;;5.80;100.00;99323.38;5141989;27;20251;-32
2021/01/12 02:31:51;;;;;;;39.20;28.23;;;;;;;5.76;100.00;99324.25;5142199;27;20201;-32
2021/01/12 02:34:37;;;;;;;40.37;26.77;;;;;;;5.84;100.00;99312.22;5141807;27;20340;-33
2021/01/12 02:37:24;;;;;;;38.03;28.10;;;;;;;5.83;100.00;99310.53;5141623;27;20488;-32
2021/01/12 02:40:11;;;;;;;39.50;28.00;;;;;;;5.99;100.00;99303.66;5141129;27;20263;-32
2021/01/12 02:42:58;;;;;;;37.90;26.77;;;;;;;5.96;100.00;99303.66;5141706;27;20205;-32
2021/01/12 02:45:43;;;;;;;38.50;26.93;;;;;;;6.01;100.00;99305.31;5140954;27;20599;-33
2021/01/12 02:48:29;;;;;;;38.37;25.07;;;;;;;5.89;100.00;99292.56;5141298;27;20605;-33
2021/01/12 02:51:15;;;;;;;38.10;25.27;;;;;;;5.95;100.00;99281.41;5141503;27;20198;-33
2021/01/12 02:54:00;;;;;;;37.93;26.30;;;;;;;5.90;100.00;99265.19;5141640;27;20201;-32
2021/01/12 02:56:55;;;;;;;33.97;23.37;;;;;;;5.96;100.00;99273.72;5141872;27;20193;-33
2021/01/12 02:59:45;;;;;;;33.37;21.20;;;;;;;5.86;100.00;99260.03;5101314;28;20223;-33
2021/01/12 03:02:32;;;;;;;31.33;22.33;;;;;;;5.83;100.00;99254.91;5100504;28;20221;-32
2021/01/12 03:05:17;;;;;;;34.77;23.23;;;;;;;5.94;100.00;99249.78;5101275;28;20191;-34
2021/01/12 03:08:04;;;;;;;29.73;21.97;;;;;;;5.90;100.00;99245.50;5100202;28;20199;-33
2021/01/12 03:10:50;;;;;;;29.93;22.97;;;;;;;6.02;100.00;99239.44;5100016;28;20195;-34
2021/01/12 03:13:37;;;;;;;28.43;21.37;;;;;;;5.85;100.00;99237.81;5100734;28;20199;-32
2021/01/12 03:16:23;;;;;;;34.23;22.47;;;;;;;5.95;100.00;99232.66;5101351;28;20624;-32
2021/01/12 03:19:09;;;;;;;29.93;21.23;;;;;;;5.88;100.00;99229.25;5100199;28;20506;-32
2021/01/12 03:21:55;;;;;;;29.40;20.50;;;;;;;5.95;100.00;99214.69;5099879;28;20344;-32
2021/01/12 03:24:41;;;;;;;31.37;20.70;;;;;;;5.91;100.00;99220.69;5100034;28;20221;-32
2021/01/12 03:27:27;;;;;;;26.40;20.70;;;;;;;5.85;100.00;99206.16;5099841;28;20195;-32
2021/01/12 03:30:14;;;;;;;27.27;20.33;;;;;;;5.88;100.00;99209.59;5099448;28;20277;-32
2021/01/12 03:33:03;;;;;;;27.23;19.47;;;;;;;5.84;100.00;99195.03;5099654;28;20203;-32
2021/01/12 03:35:49;;;;;;;26.17;19.27;;;;;;;6.00;100.00;99193.25;5100036;28;20655;-32
2021/01/12 03:38:35;;;;;;;23.87;17.43;;;;;;;5.83;100.00;99195.06;5100037;28;20219;-32
2021/01/12 03:41:20;;;;;;;26.50;19.23;;;;;;;5.85;100.00;99181.34;5100073;28;20286;-33
2021/01/12 03:44:06;;;;;;;24.00;18.33;;;;;;;5.99;100.00;99195.84;5103445;28;20543;-32
2021/01/12 03:46:52;;;;;;;24.17;17.23;;;;;;;5.88;100.00;99186.50;5099984;28;20200;-32
2021/01/12 03:49:39;;;;;;;22.00;17.70;;;;;;;5.88;100.00;99176.22;5100398;28;20191;-32
2021/01/12 03:52:25;;;;;;;22.90;17.07;;;;;;;5.94;100.00;99167.63;5099525;28;20203;-32
2021/01/12 03:55:11;;;;;;;22.23;16.90;;;;;;;5.96;100.00;99163.34;5099713;28;20289;-32
2021/01/12 03:57:57;;;;;;;20.80;16.77;;;;;;;5.90;100.00;99155.69;5112197;27;20233;-32
2021/01/12 04:00:42;;;;;;;22.43;16.50;;;;;;;6.05;100.00;99162.41;5140193;27;20198;-32
2021/01/12 04:03:28;;;;;;;22.27;16.23;;;;;;;6.04;100.00;99158.13;5140299;27;20209;-32
2021/01/12 04:06:16;;;;;;;20.70;16.23;;;;;;;6.11;100.00;99150.38;5141707;27;20468;-32
2021/01/12 04:09:03;;;;;;;22.67;15.63;;;;;;;6.06;100.00;99141.84;5140872;27;20592;-32
2021/01/12 04:11:49;;;;;;;20.60;16.37;;;;;;;6.02;100.00;99129.06;5140530;27;20611;-33
2021/01/12 04:14:35;;;;;;;19.97;15.73;;;;;;;6.19;100.00;99135.72;5140328;27;20283;-32
2021/01/12 04:17:21;;;;;;;20.17;15.77;;;;;;;6.03;100.00;99135.91;5139779;27;20202;-32
2021/01/12 04:20:08;;;;;;;19.60;14.83;;;;;;;6.07;100.00;99128.16;5140208;27;20202;-32
2021/01/12 04:22:55;;;;;;;20.83;15.37;;;;;;;6.13;100.00;99128.13;5139662;27;20210;-33
2021/01/12 04:25:41;;;;;;;17.57;13.50;;;;;;;6.05;100.00;99127.31;5139249;27;20194;-32
2021/01/12 04:28:28;;;;;;;20.10;15.67;;;;;;;6.18;100.00;99117.81;5139650;27;20258;-32
2021/01/12 04:31:13;;;;;;;15.93;13.83;;;;;;;6.04;100.00;99120.47;5139282;27;20189;-32
2021/01/12 04:33:59;;;;;;;17.10;13.60;;;;;;;6.37;100.00;99105.63;5139697;27;20654;-32
2021/01/12 04:36:45;;;;;;;16.60;13.37;;;;;;;6.23;100.00;99103.19;5139046;27;20193;-32
2021/01/12 04:39:32;;;;;;;18.23;13.87;;;;;;;6.15;100.00;99090.44;5139310;27;20193;-32
2021/01/12 04:42:18;;;;;;;17.43;12.83;;;;;;;6.33;100.00;99097.09;5140165;27;20338;-32
2021/01/12 04:45:06;;;;;;;16.73;13.67;;;;;;;6.26;100.00;99092.03;5145324;27;20262;-31
2021/01/12 04:47:52;;;;;;;16.67;14.00;;;;;;;6.25;100.00;99087.75;5142656;27;20206;-32
2021/01/12 04:50:39;;;;;;;17.93;13.90;;;;;;;6.18;100.00;99069.03;5138981;27;20700;-32
2021/01/12 04:53:25;;;;;;;18.70;14.90;;;;;;;6.33;100.00;99081.69;5139319;27;20607;-32
2021/01/12 04:56:12;;;;;;;15.60;14.00;;;;;;;6.18;100.00;99082.72;5139222;27;20362;-32
2021/01/12 04:58:58;;;;;;;16.60;13.37;;;;;;;6.27;100.00;99073.19;5138961;27;20287;-32
2021/01/12 05:01:44;;;;;;;17.20;13.93;;;;;;;6.45;100.00;99080.69;5139089;27;20225;-32
2021/01/12 05:04:33;;;;;;;17.73;14.90;;;;;;;6.36;100.00;99076.53;5139050;27;20222;-32
2021/01/12 05:07:19;;;;;;;20.80;16.13;;;;;;;6.34;100.00;99062.00;5138566;27;20198;-32
2021/01/12 05:10:13;;;;;;;17.63;14.70;;;;;;;6.30;100.00;99048.34;5139132;27;20299;-32
2021/01/12 05:13:00;;;;;;;19.90;16.23;;;;;;;6.34;100.00;99057.72;5140745;27;20200;-33
2021/01/12 05:15:48;;;;;;;20.83;15.57;;;;;;;6.35;100.00;99059.41;5140182;27;20194;-32
2021/01/12 05:18:38;;;;;;;21.83;17.30;;;;;;;6.54;100.00;99050.63;5139783;27;20253;-38
2021/01/12 05:21:33;;;;;;;22.57;16.97;;;;;;;6.53;100.00;99042.94;5138476;27;20210;-40
2021/01/12 05:24:20;;;;;;;20.30;16.60;;;;;;;6.47;100.00;99048.13;5138429;27;20202;-39
2021/01/12 05:27:08;;;;;;;26.87;19.93;;;;;;;6.59;100.00;99045.44;5137859;27;20479;-39
2021/01/12 05:30:03;;;;;;;28.00;19.27;;;;;;;6.85;100.00;99037.38;5137370;27;20198;-41
2021/01/12 05:32:51;;;;;;;26.30;19.80;;;;;;;6.80;100.00;99036.56;5138361;28;20543;-38
2021/01/12 05:35:39;;;;;;;30.17;21.80;;;;;;;6.91;100.00;99035.56;5138205;28;20283;-41
2021/01/12 05:38:28;;;;;;;27.80;20.87;;;;;;;6.73;100.00;99037.53;5136199;28;20233;-39
2021/01/12 05:41:15;;;;;;;28.90;21.60;;;;;;;6.83;100.00;99021.97;5117641;28;20636;-38
2021/01/12 05:44:01;;;;;;;30.77;22.03;;;;;;;6.57;100.00;99024.06;5117658;28;20294;-41
2021/01/12 05:46:52;;;;;;;29.53;22.87;;;;;;;6.69;100.00;99016.16;5117326;28;20199;-37
2021/01/12 05:49:39;;;;;;;36.77;22.97;;;;;;;6.73;100.00;99016.97;5117287;28;20206;-39
2021/01/12 05:52:26;;;;;;;35.87;24.23;;;;;;;6.57;100.00;99014.63;5120095;28;20198;-38
2021/01/12 05:55:16;;;;;;;38.53;24.67;;;;;;;6.74;100.00;99011.81;5121368;28;20193;-39
2021/01/12 05:58:10;;;;;;;35.80;24.27;;;;;;;6.98;100.00;99020.91;5121397;28;20251;-38
2021/01/12 06:01:01;;;;;;;41.23;25.23;;;;;;;7.00;100.00;99008.84;5121282;28;20252;-40
2021/01/12 06:03:49;;;;;;;36.10;25.33;;;;;;;6.85;100.00;99014.22;5121383;28;20597;-37
2021/01/12 06:06:38;;;;;;;41.13;27.17;;;;;;;6.96;100.00;99007.22;5121339;28;20280;-38
2021/01/12 06:09:24;;;;;;;38.83;26.10;;;;;;;7.09;100.00;99007.88;5121159;28;20247;-38
2021/01/12 06:12:11;;;;;;;37.37;26.20;;;;;;;6.97;100.00;99006.38;5121278;28;20203;-38
2021/01/12 06:14:59;;;;;;;42.63;27.50;;;;;;;6.98;100.00;99005.50;5121038;28;20234;-36
2021/01/12 06:17:48;;;;;;;39.73;25.23;;;;;;;6.99;100.00;99004.63;5120191;28;20485;-36
2021/01/12 06:20:45;;;;;;;38.13;25.43;;;;;;;7.00;100.00;99005.44;5120750;28;20203;-37
2021/01/12 06:23:38;;;;;;;41.53;26.13;;;;;;;7.01;100.00;99004.56;5120962;28;20203;-37
2021/01/12 06:26:26;;;;;;;34.77;23.17;;;;;;;7.12;100.00;98995.00;5120784;28;20256;-38
2021/01/12 06:29:12;;;;;;;43.53;25.87;;;;;;;7.07;100.00;98997.63;5121197;28;20194;-39
2021/01/12 06:31:58;;;;;;;36.27;23.93;;;;;;;7.11;100.00;98996.72;5132360;27;20298;-38
2021/01/12 06:34:44;;;;;;;38.17;25.00;;;;;;;7.12;100.00;98990.69;5141387;27;20217;-36
2021/01/12 06:37:34;;;;;;;40.53;26.43;;;;;;;7.09;100.00;98989.88;5139999;27;20202;-37
2021/01/12 06:40:21;;;;;;;40.93;24.43;;;;;;;6.93;100.00;98984.13;5141272;27;20194;-36
2021/01/12 06:43:10;;;;;;;37.67;25.13;;;;;;;7.09;100.00;98984.75;5141658;27;20190;-35
2021/01/12 06:45:58;;;;;;;41.17;25.70;;;;;;;7.14;100.00;98991.53;5140676;27;20235;-37
2021/01/12 06:48:45;;;;;;;43.08;28.58;;;;;;;7.25;100.00;98987.03;5140351;27;20605;-40
2021/01/12 06:51:36;;;;;;;40.97;27.00;;;;;;;7.20;100.00;98991.41;5140375;27;20202;-40
2021/01/12 06:54:23;;;;;;;43.87;27.27;;;;;;;6.99;100.00;98990.91;5140611;27;20218;-36
2021/01/12 06:57:11;;;;;;;45.20;26.30;;;;;;;7.09;100.00;98995.88;5140734;27;20194;-39
2021/01/12 06:59:57;;;;;;;41.70;26.30;;;;;;;7.12;100.00;98993.28;5140264;27;20197;-36
2021/01/12 07:02:43;;;;;;;37.30;25.17;;;;;;;6.92;100.00;98997.84;5140232;27;20678;-38
2021/01/12 07:05:38;;;;;;;40.87;27.87;;;;;;;6.80;100.00;98990.31;5140154;27;20197;-37
2021/01/12 07:08:27;;;;;;;37.40;27.07;;;;;;;7.16;100.00;98984.63;5140436;27;20587;-35
2021/01/12 07:11:20;;;;;;;46.07;26.93;;;;;;;7.17;100.00;98988.91;5140733;27;20218;-36
2021/01/12 07:14:06;;;;;;;43.87;28.23;;;;;;;6.97;100.00;98988.38;5140782;27;20223;-35
2021/01/12 07:16:52;;;;;;;38.93;26.07;;;;;;;7.18;100.00;98988.03;5140148;27;20194;-39
2021/01/12 07:19:38;;;;;;;39.07;26.43;;;;;;;7.36;100.00;98993.75;5140085;27;20347;-37
2021/01/12 07:22:25;;;;;;;36.80;24.47;;;;;;;7.46;100.00;98980.69;5140428;27;20347;-39
2021/01/12 07:25:11;;;;;;;36.67;26.10;;;;;;;7.49;100.00;98982.38;5140076;27;20619;-38
2021/01/12 07:28:02;;;;;;;35.60;25.10;;;;;;;7.45;100.00;98978.16;5139580;27;20239;-38
2021/01/12 07:30:50;;;;;;;34.83;24.63;;;;;;;7.51;100.00;98985.78;5139751;27;20205;-38
2021/01/12 07:33:36;;;;;;;40.93;25.43;;;;;;;7.29;100.00;98976.72;5140160;27;20291;-37
2021/01/12 07:36:22;;;;;;;37.20;25.13;;;;;;;7.50;100.00;98977.19;5139924;27;20325;-36
2021/01/12 07:39:11;;;;;;;43.63;27.37;;;;;;;7.57;100.00;98971.09;5139875;27;20367;-36
2021/01/12 07:41:57;;;;;;;40.03;25.00;;;;;;;7.50;100.00;98972.06;5139818;27;20286;-39
2021/01/12 07:44:45;;;;;;;36.33;24.60;;;;;;;7.61;100.00;98977.00;5139237;27;20197;-38
2021/01/12 07:47:31;;;;;;;35.80;23.80;;;;;;;7.61;100.00;98977.00;5139268;27;20255;-39
2021/01/12 07:50:22;;;;;;;31.33;21.30;;;;;;;7.49;100.00;98974.66;5139399;27;20202;-40
2021/01/12 07:53:09;;;;;;;27.13;18.83;;;;;;;7.36;100.00;98962.88;5139454;27;20219;-40
2021/01/12 07:55:56;;;;;;;25.53;18.40;;;;;;;7.32;100.00;98972.38;5139406;27;20244;-39
2021/01/12 07:58:43;;;;;;;23.13;16.97;;;;;;;7.58;100.00;98977.09;5139144;27;20245;-38
2021/01/12 08:01:31;;;;;;;24.77;16.90;;;;;;;7.48;100.00;98975.53;5138936;27;20650;-38
2021/01/12 08:04:17;;;;;;;24.60;16.20;;;;;;;7.52;100.00;98975.47;5139122;27;20190;-40
2021/01/12 08:07:03;;;;;;;21.30;15.53;;;;;;;7.42;100.00;98973.91;5139927;27;20254;-49
2021/01/12 08:09:55;;;;;;;19.70;13.43;;;;;;;7.46;100.00;98974.69;5139519;27;20202;-36
2021/01/12 08:12:43;;;;;;;18.40;13.93;;;;;;;7.48;100.00;98971.22;5139550;27;20206;-41
2021/01/12 08:15:29;;;;;;;19.83;13.47;;;;;;;7.51;100.00;98972.91;5139408;27;20198;-39
2021/01/12 08:18:18;;;;;;;18.70;13.47;;;;;;;7.44;100.00;98985.00;5139226;27;20238;-39
2021/01/12 08:21:04;;;;;;;18.43;12.50;;;;;;;7.39;100.00;98988.56;5138922;27;20335;-39
2021/01/12 08:23:59;;;;;;;17.67;12.90;;;;;;;7.62;100.00;98986.41;5138723;27;20222;-35
2021/01/12 08:26:46;;;;;;;17.60;12.00;;;;;;;7.48;100.00;98990.97;5139106;27;20198;-39
2021/01/12 08:29:33;;;;;;;16.03;11.57;;;;;;;7.46;100.00;98985.84;5138907;27;20251;-36
2021/01/12 08:32:26;;;;;;;16.50;11.00;;;;;;;7.44;100.00;98991.88;5138859;27;20355;-39
2021/01/12 08:35:15;;;;;;;11.47;8.93;;;;;;;7.35;100.00;98990.34;5138996;27;20199;-39
2021/01/12 08:38:07;;;;;;;12.07;8.17;;;;;;;7.55;100.00;98997.72;5138807;27;20199;-36
2021/01/12 08:41:04;;;;;;;12.40;8.70;;;;;;;7.24;100.00;98998.19;5138847;27;20212;-37
2021/01/12 08:43:56;;;;;;;13.97;9.10;;;;;;;7.56;100.00;99000.25;5139143;27;20468;-38
2021/01/12 08:46:45;;;;;;;13.63;9.10;;;;;;;7.47;100.00;98997.84;5139287;27;20199;-38
2021/01/12 08:49:31;;;;;;;15.70;9.57;;;;;;;7.43;100.00;99006.47;5138485;27;20223;-38
2021/01/12 08:52:19;;;;;;;11.30;7.43;;;;;;;7.24;100.00;99003.34;5138765;27;20202;-36
2021/01/12 08:55:15;;;;;;;8.23;5.90;;;;;;;7.19;100.00;99018.00;5139067;27;20205;-36
2021/01/12 08:58:06;;;;;;;6.97;5.27;;;;;;;7.23;100.00;99019.66;5138527;27;20362;-38
2021/01/12 09:00:55;;;;;;;7.67;6.07;;;;;;;7.24;100.00;99018.78;5138783;27;20328;-35
2021/01/12 09:03:42;;;;;;;8.83;5.67;;;;;;;7.36;100.00;99016.91;5138115;27;20194;-38
2021/01/12 09:06:28;;;;;;;9.70;6.10;;;;;;;7.36;100.00;99024.63;5138163;27;20198;-39
2021/01/12 09:09:15;;;;;;;12.90;7.40;;;;;;;7.25;100.00;99023.06;5138323;27;20254;-38
2021/01/12 09:12:04;;;;;;;10.50;6.57;;;;;;;7.29;100.00;99030.72;5138059;27;20235;-40
2021/01/12 09:14:50;;;;;;;12.50;7.33;;;;;;;7.39;100.00;99019.44;5137753;27;20215;-39
2021/01/12 09:17:36;;;;;;;10.50;7.00;;;;;;;7.52;100.00;99020.91;5138590;27;20218;-38
2021/01/12 09:20:24;;;;;;;10.43;7.30;;;;;;;7.56;100.00;99023.44;5137723;27;20195;-40
2021/01/12 09:23:11;;;;;;;11.73;7.97;;;;;;;7.62;100.00;99027.59;5138137;27;20252;-38
2021/01/12 09:26:02;;;;;;;10.50;7.50;;;;;;;7.35;100.00;99031.50;5137389;27;20194;-40
2021/01/12 09:28:53;;;;;;;11.77;7.87;;;;;;;7.47;100.00;99027.84;5137807;27;20194;-38
2021/01/12 09:31:49;;;;;;;11.40;7.33;;;;;;;7.56;100.00;99028.56;5137794;27;20310;-39
2021/01/12 09:34:38;;;;;;;13.00;7.83;;;;;;;7.46;100.00;99033.88;5137790;28;20265;-38
2021/01/12 09:37:37;;;;;;;16.60;8.90;;;;;;;7.35;100.00;99035.78;5137814;28;20199;-39
2021/01/12 09:40:29;;;;;;;13.00;8.37;;;;;;;7.48;100.00;99037.28;5137759;28;20339;-40
2021/01/12 09:43:30;;;;;;;12.07;7.97;;;;;;;7.65;100.00;99043.00;5137373;28;20260;-38
2021/01/12 09:46:16;;;;;;;12.57;7.77;;;;;;;7.46;100.00;99046.75;5137392;28;20753;-37
2021/01/12 09:49:03;;;;;;;13.03;7.70;;;;;;;7.39;100.00;99051.16;5137745;28;20480;-39
2021/01/12 09:51:52;;;;;;;13.43;8.80;;;;;;;7.53;100.00;99059.50;5137758;28;20195;-39
2021/01/12 09:54:46;;;;;;;10.77;8.90;;;;;;;7.66;100.00;99062.72;5137791;28;20774;-38
2021/01/12 09:57:35;;;;;;;14.27;9.07;;;;;;;7.55;100.00;99064.63;5137434;28;20894;-38
2021/01/12 10:00:23;;;;;;;13.37;9.00;;;;;;;7.69;100.00;99067.81;5137892;28;20659;-37
2021/01/12 10:03:12;;;;;;;15.87;9.07;;;;;;;7.48;100.00;99069.00;5137303;28;20202;-38
2021/01/12 10:05:58;;;;;;;15.10;10.10;;;;;;;7.50;100.00;99076.69;5137452;28;20481;-38
2021/01/12 10:08:45;;;;;;;11.50;9.33;;;;;;;7.47;100.00;99076.75;5137507;28;20190;-38
2021/01/12 10:11:37;;;;;;;16.03;10.07;;;;;;;7.52;100.00;99080.09;5137747;28;20194;-38
2021/01/12 10:14:24;;;;;;;16.20;10.27;;;;;;;7.45;100.00;99078.47;5137532;28;20269;-39
2021/01/12 10:17:12;;;;;;;17.03;10.77;;;;;;;7.70;100.00;99089.25;5137399;28;20200;-36
2021/01/12 10:20:00;;;;;;;17.33;10.40;;;;;;;7.50;100.00;99084.41;5137493;28;20231;-40
2021/01/12 10:22:45;;;;;;;13.47;10.17;;;;;;;7.67;100.00;99087.56;5137370;28;20280;-40
2021/01/12 10:25:31;;;;;;;17.93;12.13;;;;;;;7.64;100.00;99097.06;5137393;28;20196;-39
2021/01/12 10:28:21;;;;;;;18.83;11.90;;;;;;;7.83;100.00;99101.88;5137783;28;20200;-41
2021/01/12 10:31:06;;;;;;;17.80;10.83;;;;;;;7.48;100.00;99107.59;5137617;28;20282;-37
2021/01/12 10:33:54;;;;;;;12.63;9.47;;;;;;;7.31;100.00;99116.44;5136771;28;20248;-38
2021/01/12 10:36:40;;;;;;;12.70;7.77;;;;;;;6.96;100.00;99122.91;5137127;28;20189;-38
2021/01/12 10:39:27;;;;;;;12.27;7.63;;;;;;;6.92;100.00;99123.81;5140589;27;20678;-38
2021/01/12 10:42:16;;;;;;;14.07;9.33;;;;;;;6.77;100.00;99131.72;5140367;27;20207;-39
2021/01/12 10:45:11;;;;;;;11.17;8.07;;;;;;;7.07;100.00;99133.91;5140215;27;20202;-34
2021/01/12 10:48:01;;;;;;;12.73;8.27;;;;;;;6.85;100.00;99137.59;5140844;27;20202;-37
2021/01/12 10:50:47;;;;;;;15.47;8.80;;;;;;;6.93;100.00;99143.50;5140216;27;20201;-40
2021/01/12 10:53:34;;;;;;;14.50;9.40;;;;;;;6.73;100.00;99148.03;5140342;27;20723;-35
2021/01/12 10:56:21;;;;;;;13.57;9.33;;;;;;;7.04;100.00;99154.50;5140022;27;20206;-37
2021/01/12 10:59:09;;;;;;;11.50;7.20;;;;;;;6.79;100.00;99156.53;5140517;27;20238;-37
2021/01/12 11:01:55;;;;;;;12.70;7.67;;;;;;;6.97;100.00;99158.03;5140084;27;20198;-33
2021/01/12 11:04:44;;;;;;;8.70;5.87;;;;;;;6.66;100.00;99162.66;5139575;27;20579;-37
2021/01/12 11:07:31;;;;;;;10.87;6.57;;;;;;;6.74;100.00;99165.16;5139597;27;20198;-39
2021/01/12 11:10:17;;;;;;;8.87;5.83;;;;;;;6.67;100.00;99163.50;5139576;27;20190;-35
2021/01/12 11:13:05;;;;;;;6.33;5.10;;;;;;;6.58;100.00;99169.63;5139485;27;20190;-38
2021/01/12 11:15:50;;;;;;;8.47;5.20;;;;;;;6.67;100.00;99171.22;5140363;27;20235;-35
2021/01/12 11:18:42;;;;;;;7.30;5.47;;;;;;;6.75;100.00;99174.56;5140720;27;20274;-40
2021/01/12 11:21:29;;;;;;;8.13;5.07;;;;;;;6.65;100.00;99178.09;5138942;27;20299;-37
2021/01/12 11:24:19;;;;;;;7.10;5.17;;;;;;;6.84;100.00;99179.59;5138987;27;20291;-38
2021/01/12 11:27:07;;;;;;;8.43;5.40;;;;;;;6.76;100.00;99176.28;5139803;27;20294;-38
2021/01/12 11:29:55;;;;;;;13.73;7.07;;;;;;;6.80;100.00;99180.50;5140063;27;20186;-36
2021/01/12 11:32:44;;;;;;;9.50;5.43;;;;;;;6.80;100.00;99185.63;5138568;27;20194;-38
2021/01/12 11:35:32;;;;;;;11.47;6.17;;;;;;;6.80;100.00;99186.47;5139560;27;20489;-37
2021/01/12 11:38:21;;;;;;;8.50;5.43;;;;;;;6.72;100.00;99197.72;5139175;27;20202;-37
2021/01/12 11:41:10;;;;;;;6.90;4.67;;;;;;;6.91;100.00;99188.94;5138590;27;20295;-38
2021/01/12 11:43:58;;;;;;;7.60;3.77;;;;;;;6.97;100.00;99198.31;5138197;27;20190;-39
2021/01/12 11:46:46;;;;;;;5.07;3.23;;;;;;;6.96;100.00;99200.03;5139533;27;20661;-40
2021/01/12 11:49:35;;;;;;;5.60;3.63;;;;;;;7.01;100.00;99207.69;5139007;27;20193;-35
2021/01/12 11:52:21;;;;;;;6.80;4.10;;;;;;;6.81;100.00;99207.91;5139700;27;20603;-40
2021/01/12 11:55:08;;;;;;;6.20;3.80;;;;;;;6.86;100.00;99208.72;5139319;27;20195;-39
2021/01/12 11:57:55;;;;;;;5.70;3.87;;;;;;;6.87;100.00;99213.84;5138862;27;20298;-36
2021/01/12 12:00:45;;;;;;;5.67;4.07;;;;;;;6.91;100.00;99212.94;5139351;27;20190;-35
2021/01/12 12:03:37;;;;;;;8.53;5.70;;;;;;;7.08;100.00;99222.16;5138789;27;20240;-37
2021/01/12 12:06:23;;;;;;;5.60;3.47;;;;;;;7.04;100.00;99221.34;5138983;27;20343;-38
2021/01/12 12:09:11;;;;;;;5.80;4.13;;;;;;;7.14;100.00;99227.25;5139023;27;20199;-37
2021/01/12 12:12:01;;;;;;;7.33;4.50;;;;;;;6.94;100.00;99224.06;5139321;27;20214;-37
2021/01/12 12:14:48;;;;;;;8.60;4.57;;;;;;;6.87;100.00;99231.81;5138570;27;20197;-35
2021/01/12 12:17:42;;;;;;;8.07;4.80;;;;;;;6.45;100.00;99230.53;5138849;27;20243;-38
2021/01/12 12:20:28;;;;;;;4.97;4.47;;;;;;;6.63;100.00;99233.78;5138513;27;20655;-39
2021/01/12 12:23:14;;;;;;;5.67;3.97;;;;;;;6.48;100.00;99233.06;5138791;27;20298;-39
2021/01/12 12:26:01;;;;;;;6.23;4.20;;;;;;;6.66;100.00;99249.19;5138305;27;20347;-34
2021/01/12 12:28:46;;;;;;;6.20;3.30;;;;;;;6.29;100.00;99251.22;5139122;27;20591;-36
2021/01/12 12:31:33;;;;;;;9.47;3.47;;;;;;;6.12;100.00;99254.78;5138471;27;20239;-39
2021/01/12 12:34:19;;;;;;;7.20;4.00;;;;;;;6.22;100.00;99261.53;5138615;27;20596;-41
2021/01/12 12:37:09;;;;;;;6.33;3.27;;;;;;;6.00;100.00;99265.09;5138417;27;20795;-38
2021/01/12 12:39:55;;;;;;;4.17;3.07;;;;;;;6.17;100.00;99262.44;5138652;27;20322;-39
2021/01/12 12:42:41;;;;;;;5.23;3.53;;;;;;;6.00;100.00;99266.81;5138601;27;20251;-38
2021/01/12 12:45:28;;;;;;;10.53;3.73;;;;;;;6.20;100.00;99265.81;5138225;27;20189;-38
2021/01/12 12:48:17;;;;;;;7.43;3.87;;;;;;;6.03;100.00;99271.94;5138369;27;20358;-40
2021/01/12 12:51:03;;;;;;;6.70;3.70;;;;;;;5.85;100.00;99275.44;5138215;27;20472;-40
2021/01/12 12:53:51;;;;;;;7.40;3.90;;;;;;;6.03;100.00;99277.94;5137762;27;20312;-39
2021/01/12 12:56:41;;;;;;;13.80;4.53;;;;;;;6.25;100.00;99273.50;5138141;27;20198;-39